METAR Data
IDs: Format: Raw Decoded Include TAF

Data at: 0526 UTC 24 Sep 2020

VTUK 240500Z VRB02KT 9999 BKN025 BKN100 31/25 Q1011 NOSIG
VTUK 240400Z VRB02KT 9999 SCT025 BKN100 31/25 Q1012 NOSIG
VTUK 240300Z 31003KT 230V040 9999 FEW010 SCT025 BKN100 30/26 Q1013 NOSIG
VTUK 240200Z 04003KT 320V090 9999 FEW010 SCT025 BKN100 28/26 Q1013 NOSIG
VTUK 240100Z VRB02KT 9000 SCT005 BKN100 26/24 Q1012 NOSIG
VTUK 240000Z 03003KT 9000 SCT005 BKN100 25/25 Q1011 NOSIG
VTUK 232300Z 36003KT 9000 SCT005 BKN100 25/24 Q1010 NOSIG
VTUK 232200Z 23003KT 9999 SCT004 SCT030 BKN100 25/25 Q1010 NOSIG
VTUK 232100Z 23003KT 190V260 9999 FEW002 SCT030 BKN100 25/25 Q1010 NOSIG
VTUK 232000Z VRB02KT 9999 SCT030 BKN100 25/25 Q1010 NOSIG
VTUK 231900Z VRB01KT 9999 SCT020 BKN100 25/25 Q1010 NOSIG
VTUK 231800Z VRB01KT 9999 FEW002 SCT020 BKN100 25/25 Q1011 NOSIG
VTUK 231700Z 27003KT 9999 FEW047 25/25 Q1011 NOSIG
VTUK 231600Z VRB02KT 9999 FEW010 SCT020 BKN100 25/25 Q1012 NOSIG
VTUK 231500Z 20002KT 9999 FEW004 BKN020 BKN100 25/25 Q1012 NOSIG
VTUK 231400Z 30003KT 9999 FEW006 SCT020 BKN080 25/25 Q1011 NOSIG
VTUK 231300Z 00000KT 9999 SCT025 25/25 Q1010 NOSIG
VTUK 231200Z VRB01KT 9999 SCT025 25/25 Q1009 NOSIG
VTUK 231100Z VRB01KT 9999 FEW008 SCT020 BKN100 26/25 Q1008 NOSIG
VTUK 231000Z 00000KT 9999 FEW004 BKN100 27/24 Q1008 NOSIG
VTUK 230900Z VRB02KT 9999 FEW004 BKN100 25/24 Q1009 NOSIG
VTUK 230800Z 28004KT 250V330 5000 -RA FEW004 BKN020 BKN080 24/23 Q1009 RERA NOSIG
VTUK 230700Z 21005KT 170V290 3000 +RA FEW012 BKN020 BKN080 24/24 Q1010 RERA NOSIG
VTUK 230600Z 01015KT 5000 -RA SCT010 BKN020 BKN080 25/24 Q1010 RERA NOSIG
VTUK 230500Z 08008KT 050V130 3000 RA BKN020 BKN080 27/26 Q1010 NOSIG
VTUK 230400Z 20006KT 170V230 9999 FEW010 BKN018 BKN100 30/26 Q1011 NOSIG
VTUK 230300Z 18005KT 9999 SCT010 BKN020 BKN100 29/26 Q1011 NOSIG
VTUK 230200Z 16004KT 090V210 9000 FEW008 BKN020 BKN100 29/26 Q1011 NOSIG
VTUK 230100Z 17004KT 130V200 9000 SCT008 BKN100 27/26 Q1011 NOSIG
VTUK 230000Z 16003KT 100V210 9000 SCT008 BKN100 27/26 Q1010 NOSIG
VTUK 222300Z VRB02KT 8000 FEW020 BKN100 26/26 Q1010 NOSIG
VTUK 222200Z VRB02KT 8000 SCT007 BKN100 26/26 Q1009 NOSIG
VTUK 222100Z 21003KT 8000 SCT008 BKN100 27/26 Q1009 NOSIG
VTUK 222000Z 20005KT 8000 SCT006 SCT100 27/26 Q1009 NOSIG
VTUK 221900Z 19005KT 8000 SCT010 SCT030 27/26 Q1009 NOSIG
VTUK 221800Z 20005KT 8000 SCT010 SCT030 27/27 Q1010 NOSIG

VTUD 240500Z 10003KT 010V180 9999 SCT020 33/24 Q1011 NOSIG
VTUD 240400Z 21003KT 150V270 9999 SCT020 31/24 Q1012 NOSIG
VTUD 240300Z 15004KT 110V220 9999 BKN015 30/25 Q1012 NOSIG
VTUD 240200Z 19003KT 080V240 9999 BKN015 28/25 Q1012 NOSIG
VTUD 240100Z VRB02KT 9999 BKN010 27/25 Q1011 NOSIG
VTUD 240000Z VRB02KT 9999 FEW020 25/25 Q1011 NOSIG
VTUD 232300Z VRB01KT 9999 FEW020 25/24 Q1010 NOSIG
VTUD 231300Z 18003KT 9999 FEW020 26/25 Q1009 NOSIG
VTUD 231200Z VRB02KT 9999 FEW020 26/25 Q1008 NOSIG
VTUD 231100Z VRB02KT 9999 FEW020 27/25 Q1007 NOSIG
VTUD 231000Z 20003KT 170V240 9999 FEW020 28/25 Q1007 NOSIG
VTUD 230900Z 22004KT 180V270 9999 FEW020 SCT100 29/25 Q1008 NOSIG
VTUD 230800Z VRB03KT 9999 FEW020 SCT100 28/24 Q1008 NOSIG
VTUD 230700Z 21003KT 160V260 9999 FEW020 SCT100 28/23 Q1008 NOSIG
VTUD 230600Z 30003KT 250V330 9999 FEW020 SCT100 25/25 Q1009 RERA NOSIG
VTUD 230500Z VRB02KT 9999 -TSRA FEW010 FEW020CB SCT030 24/23 Q1011 NOSIG
VTUD 230400Z 07011KT 030V120 1200 +TSRA SCT010 SCT020CB BKNO30 23/23 Q1011 TEMPO TL0420 5000
VTUD 230300Z 05004KT 6000 -RA FEW010 FEW020CB SCT030 26/25 Q1010 NOSIG
VTUD 230200Z VRB02KT 9999 FEW010 SCT030 29/25 Q1011 NOSIG
VTUD 230100Z 10004KT 070V140 8000 FEW010 SCT030 28/25 Q1010 NOSIG
VTUD 230000Z 09004KT 7000 FEW030 26/26 Q1010 NOSIG
VTUD 222300Z VRB01KT 9000 FEW030 26/25 Q1009 NOSIG

VTUL 240500Z VRB03KT 9999 SCT028 31/23 Q1011 NOSIG
VTUL 240400Z VRB02KT 9999 SCT025 30/25 Q1012 NOSIG
VTUL 240300Z VRB01KT 9999 BKN025 29/24 Q1013 NOSIG
VTUL 240200Z 32006KT 270V010 9999 SCT020 SCT070 27/24 Q1013 NOSIG
VTUL 240100Z 30004KT 270V330 9999 FEW015 SCT025 BKN070 26/24 Q1012 NOSIG
VTUL 240000Z VRB02KT 8000 FEW025 BKN070 25/25 Q1010 NOSIG
VTUL 232300Z VRB02KT 4000 BR SCT025 SCT070 24/24 Q1010 NOSIG
VTUL 231200Z VRB02KT 9999 SCT030 BKN080 26/26 Q1009 NOSIG
VTUL 231100Z VRB02KT 9999 SCT030 BKN080 27/26 Q1007 NOSIG
VTUL 231000Z VRB01KT 9999 SCT030 BKN080 28/26 Q1007 NOSIG
VTUL 230900Z VRB01KT 9999 SCT030 BKN080 28/27 Q1008 NOSIG
VTUL 230800Z 15005KT 9999 FEW003 BKN030 BKN080 28/26 Q1009 NOSIG
VTUL 230700Z 16003KT 080V210 9999 FEW003 BKN025 OVC080 28/26 Q1009 NOSIG
VTUL 230600Z 36004KT 9999 FEW003 BKN025 BKN080 28/26 Q1010 NOSIG
VTUL 230500Z 36005KT 310V020 9999 SCT003 BKN025 BKN080 27/27 Q1011 NOSIG
VTUL 230400Z 35003KT 320V020 9999 SCT003 BKN025 BKN080 27/26 Q1011 NOSIG
VTUL 230300Z VRB02KT 9999 SCT003 BKN025 BKN080 27/26 Q1011 NOSIG
VTUL 230200Z 36003KT 330V030 9999 SCT003 BKN025 BKN080 26/26 Q1011 NOSIG
VTUL 230100Z VRB02KT 9999 SCT003 BKN025 BKN080 26/26 Q1011 NOSIG
VTUL 230000Z 34003KT 300V040 5000 BR SCT003 BKN025 BKN080 26/26 Q1010 NOSIG
VTUL 222300Z 00000KT 3000 BR SCT003 BKN025 BKN080 26/26 Q1010 BECMG TL0100 9999 NSW

VTUI 240500Z 03003KT 330V100 9999 FEW018TCU BKN025 31/25 Q1010 NOSIG
VTUI 240400Z VRB03KT 9999 BKN020 30/25 Q1011 NOSIG
VTUI 240300Z VRB02KT 9999 BKN015 30/25 Q1012 NOSIG
VTUI 240200Z VRB01KT 9999 BKN015 29/25 Q1012 NOSIG
VTUI 240100Z VRB02KT 9999 BKN015 27/26 Q1011 NOSIG
VTUI 240000Z VRB01KT 9999 SCT008 26/26 Q1010 NOSIG
VTUI 232300Z 00000KT 9999 SCT008 25/25 Q1010 NOSIG
VTUI 231200Z VRB02KT 9999 FEW020 28/27 Q1008 NOSIG
VTUI 231100Z VRB02KT 9999 FEW020 28/27 Q1007 NOSIG
VTUI 231000Z 27004KT 240V330 9999 SCT025 30/27 Q1007 NOSIG
VTUI 230900Z VRB04KT 9999 SCT030 30/26 Q1007 NOSIG
VTUI 230800Z 27006KT 240V330 9999 VCSH FEW018CB SCT030 29/25 Q1007 NOSIG
VTUI 230700Z 28009KT 250V310 9999 VCSH FEW018CB BKN025 27/26 Q1008 NOSIG
VTUI 230600Z 01003KT 290V080 9999 VCSH FEW018CB BKN025 31/25 Q1008 NOSIG
VTUI 230500Z VRB03KT 9999 FEW018TCU BKN020 31/26 Q1009 NOSIG
VTUI 230400Z 35003KT 300V050 9999 BKN020 30/26 Q1010 A2983 NOSIG
VTUI 230300Z 04004KT 360V070 9000 -RA FEW015TCU BKN020 27/27 Q1010 NOSIG
VTUI 230200Z 22004KT 160V260 9999 BKN015 28/27 Q1011 NOSIG
VTUI 230100Z 21003KT 170V240 9999 FEW008 BKN015 28/27 Q1010 NOSIG
VTUI 230000Z 00000KT 9999 SCT005 BKN015 BKN080 27/27 Q1010 NOSIG
VTUI 222300Z 00000KT 9999 SCT005 BKN015 26/26 Q1009 NOSIG

VTUW 240500Z VRB02KT 9999 VCTS VCSH FEW015CB BKN020 31/25 Q1011 NOSIG
VTUW 240400Z VRB03KT 9999 VCTS VCSH FEW015CB BKN020 BKN050 30/26 Q1012 NOSIG
VTUW 240300Z VRB02KT 9999 VCSH FEW015TCU BKN020 30/26 Q1012 NOSIG
VTUW 240200Z VRB02KT 9999 SCT010 BKN015 29/26 Q1012 NOSIG
VTUW 240100Z 18003KT 120V220 9000 BKN005 BKN020 27/26 Q1011 BECMG BKN010 BKN020
VTUW 240000Z VRB02KT 4000 BR BKN005 OVC015 26/26 Q1010 BECMG 7000 NSW
VTUW 231300Z VRB02KT 9999 FEW030 27/27 Q1009 NOSIG
VTUW 231200Z VRB01KT 9999 FEW030 28/27 Q1008 NOSIG
VTUW 231100Z VRB02KT 9999 FEW030 29/27 Q1007 NOSIG
VTUW 231000Z 25003KT 220V290 9999 FEW030 31/26 Q1007 NOSIG
VTUW 230900Z 11004KT 010V150 9999 SCT030 32/26 Q1007 NOSIG
VTUW 230800Z 13004KT 080V180 9999 SCT030 32/25 Q1007 NOSIG
VTUW 230700Z 07005KT 040V100 9999 BKN025 31/26 Q1008 NOSIG
VTUW 230600Z VRB04KT 9999 BKN025 32/26 Q1008 NOSIG
VTUW 230500Z VRB03KT 9999 BKN020 31/26 Q1010 NOSIG
VTUW 230400Z 17004KT 080V240 9999 BKN020 31/25 Q1010 NOSIG
VTUW 230300Z 15003KT 080V190 9999 SCT010 OVC020 28/25 Q1011 NOSIG
VTUW 230200Z 18003KT 140V240 9999 SCT008 BKN020 27/26 Q1011 NOSIG
VTUW 230100Z 13004KT 9999 SCT006 BKN020 27/26 Q1011 NOSIG
VTUW 230000Z 16004KT 9999 SCT003 BKN020 26/26 Q1010 NOSIG